Time;durP1;ratioP1;P1;durP2;ratioP2;P2;SDS_P1;SDS_P2;PMS_P1;PMS_P2;Temp;Humidity;BMP_temperature;BMP_pressure;BME280_temperature;BME280_humidity;BME280_pressure;Samples;Min_cycle;Max_cycle;Signal;HPM_P1;HPM_P2
2022/04/01 00:01:56;;;;;;;;;;;;;;;;;;5015767;28;19924;-22
2022/04/01 00:04:23;;;;;;;;;;;;;;;;;;5016085;28;20329;-22
2022/04/01 00:06:49;;;;;;;;;;;;;;;;;;5015444;28;20008;-22
2022/04/01 00:09:16;;;;;;;;;;;;;;;;;;5016026;28;19944;-23
2022/04/01 00:11:42;;;;;;;;;;;;;;;;;;5015454;28;19913;-22
2022/04/01 00:14:08;;;;;;;;;;;;;;;;;;5014879;28;19909;-22
2022/04/01 00:16:34;;;;;;;;;;;;;;;;;;4997786;28;19913;-22
2022/04/01 00:19:01;;;;;;;;;;;;;;;;;;5015420;28;19940;-21
2022/04/01 00:21:28;;;;;;;;;;;;;;;;;;5015311;28;19968;-22
2022/04/01 00:23:54;;;;;;;;;;;;;;;;;;5005427;28;19925;-22
2022/04/01 00:26:20;;;;;;;;;;;;;;;;;;4995410;28;19917;-23
2022/04/01 00:28:46;;;;;;;;;;;;;;;;;;4995921;28;20305;-22
2022/04/01 00:31:13;;;;;;;;;;;;;;;;;;4996063;28;19914;-22
2022/04/01 00:33:41;;;;;;;;;;;;;;;;;;4995388;28;20360;-22
2022/04/01 00:36:07;;;;;;;;;;;;;;;;;;4995463;28;19924;-22
2022/04/01 00:38:33;;;;;;;;;;;;;;;;;;4996230;28;20328;-22
2022/04/01 00:40:59;;;;;;;;;;;;;;;;;;4995531;28;19913;-22
2022/04/01 00:43:26;;;;;;;;;;;;;;;;;;4995409;28;19921;-22
2022/04/01 00:45:53;;;;;;;;;;;;;;;;;;4995883;28;19916;-22
2022/04/01 00:48:19;;;;;;;;;;;;;;;;;;4995258;28;19968;-22
2022/04/01 00:50:45;;;;;;;;;;;;;;;;;;4995404;28;19913;-22
2022/04/01 00:53:11;;;;;;;;;;;;;;;;;;4995594;28;19932;-22
2022/04/01 00:55:37;;;;;;;;;;;;;;;;;;4995379;28;19914;-22
2022/04/01 00:58:05;;;;;;;;;;;;;;;;;;4995815;28;19928;-22
2022/04/01 01:00:35;;;;;;;;;;;;;;;;;;4995158;28;19909;-22
2022/04/01 01:03:01;;;;;;;;;;;;;;;;;;4995054;28;20060;-22
2022/04/01 01:05:30;;;;;;;;;;;;;;;;;;4995805;28;19910;-22
2022/04/01 01:07:57;;;;;;;;;;;;;;;;;;4995102;28;20276;-22
2022/04/01 01:10:23;;;;;;;;;;;;;;;;;;4995062;28;20344;-22
2022/04/01 01:12:49;;;;;;;;;;;;;;;;;;4995397;28;19914;-22
2022/04/01 01:15:17;;;;;;;;;;;;;;;;;;4995148;28;20001;-22
2022/04/01 01:17:43;;;;;;;;;;;;;;;;;;4995376;28;19918;-22
2022/04/01 01:20:12;;;;;;;;;;;;;;;;;;4995096;28;20254;-23
2022/04/01 01:22:40;;;;;;;;;;;;;;;;;;4994986;28;20345;-22
2022/04/01 01:25:06;;;;;;;;;;;;;;;;;;4994804;28;19921;-22
2022/04/01 01:27:32;;;;;;;;;;;;;;;;;;4980961;28;19918;-22
2022/04/01 01:29:58;;;;;;;;;;;;;;;;;;4998764;28;20002;-21
2022/04/01 01:32:24;;;;;;;;;;;;;;;;;;4998626;28;19910;-22
2022/04/01 01:34:52;;;;;;;;;;;;;;;;;;4999212;28;19913;-22
2022/04/01 01:37:18;;;;;;;;;;;;;;;;;;4998631;28;20218;-22
2022/04/01 01:39:45;;;;;;;;;;;;;;;;;;4981428;28;19913;-21
2022/04/01 01:42:11;;;;;;;;;;;;;;;;;;4998412;28;19914;-21
2022/04/01 01:44:37;;;;;;;;;;;;;;;;;;4998577;28;19937;-22
2022/04/01 01:47:04;;;;;;;;;;;;;;;;;;4998769;28;19999;-22
2022/04/01 01:49:30;;;;;;;;;;;;;;;;;;4998317;28;19972;-22
2022/04/01 01:57:08;;;;;;;;;;;;;;;;;;4998278;28;20024;-22
2022/04/01 01:59:36;;;;;;;;;;;;;;;;;;4998350;28;19910;-22
2022/04/01 02:02:05;;;;;;;;;;;;;;;;;;4998623;28;19944;-23
2022/04/01 02:04:31;;;;;;;;;;;;;;;;;;4998141;28;19914;-22
2022/04/01 02:06:57;;;;;;;;;;;;;;;;;;4998020;28;19962;-22
2022/04/01 02:09:23;;;;;;;;;;;;;;;;;;4998042;28;20309;-22
2022/04/01 02:11:52;;;;;;;;;;;;;;;;;;4998450;28;19921;-22
2022/04/01 02:14:18;;;;;;;;;;;;;;;;;;4997821;28;19936;-22
2022/04/01 02:16:44;;;;;;;;;;;;;;;;;;4997932;28;19918;-22
2022/04/01 02:19:11;;;;;;;;;;;;;;;;;;4997782;28;20065;-22
2022/04/01 02:21:37;;;;;;;;;;;;;;;;;;4998264;28;20029;-22
2022/04/01 02:24:03;;;;;;;;;;;;;;;;;;4997534;28;19926;-22
2022/04/01 02:26:29;;;;;;;;;;;;;;;;;;4997702;28;19917;-22
2022/04/01 02:28:59;;;;;;;;;;;;;;;;;;4998486;28;19910;-22
2022/04/01 02:31:25;;;;;;;;;;;;;;;;;;4997449;28;19936;-22
2022/04/01 02:33:51;;;;;;;;;;;;;;;;;;4997533;28;19996;-22
2022/04/01 02:36:17;;;;;;;;;;;;;;;;;;4997505;28;19914;-22
2022/04/01 02:38:43;;;;;;;;;;;;;;;;;;4996655;28;19953;-22
2022/04/01 02:41:11;;;;;;;;;;;;;;;;;;4997738;28;19914;-23
2022/04/01 02:43:37;;;;;;;;;;;;;;;;;;4997247;28;19956;-22
2022/04/01 02:46:05;;;;;;;;;;;;;;;;;;4997345;28;19921;-22
2022/04/01 02:48:31;;;;;;;;;;;;;;;;;;4997316;28;20294;-22
2022/04/01 02:50:58;;;;;;;;;;;;;;;;;;4997344;28;20252;-22
2022/04/01 02:53:24;;;;;;;;;;;;;;;;;;4997616;28;19913;-22
2022/04/01 02:55:50;;;;;;;;;;;;;;;;;;4996984;28;19914;-22
2022/04/01 02:58:18;;;;;;;;;;;;;;;;;;4997095;28;19910;-22
2022/04/01 03:00:45;;;;;;;;;;;;;;;;;;4997624;28;20245;-22
2022/04/01 03:03:12;;;;;;;;;;;;;;;;;;4996933;28;20385;-22
2022/04/01 03:05:39;;;;;;;;;;;;;;;;;;4997522;28;19972;-22
2022/04/01 03:08:05;;;;;;;;;;;;;;;;;;4996823;28;19914;-22
2022/04/01 03:10:32;;;;;;;;;;;;;;;;;;4996960;28;19965;-22
2022/04/01 03:12:58;;;;;;;;;;;;;;;;;;4996610;28;19925;-22
2022/04/01 03:15:24;;;;;;;;;;;;;;;;;;4996727;28;19945;-21
2022/04/01 03:17:50;;;;;;;;;;;;;;;;;;4997320;28;19914;-22
2022/04/01 03:20:16;;;;;;;;;;;;;;;;;;4996755;28;19910;-22
2022/04/01 03:22:44;;;;;;;;;;;;;;;;;;4996634;28;19914;-22
2022/04/01 03:25:10;;;;;;;;;;;;;;;;;;5016263;28;20004;-21
2022/04/01 03:27:36;;;;;;;;;;;;;;;;;;5016002;28;19917;-22
2022/04/01 03:30:03;;;;;;;;;;;;;;;;;;5016632;28;20301;-22
2022/04/01 03:32:29;;;;;;;;;;;;;;;;;;5016036;28;19914;-22
2022/04/01 03:34:55;;;;;;;;;;;;;;;;;;5016047;28;19948;-22
2022/04/01 03:37:21;;;;;;;;;;;;;;;;;;5016528;28;19976;-22
2022/04/01 03:39:48;;;;;;;;;;;;;;;;;;5015932;28;19991;-22
2022/04/01 03:42:14;;;;;;;;;;;;;;;;;;5015840;28;19916;-22
2022/04/01 03:44:41;;;;;;;;;;;;;;;;;;4998468;28;20004;-22
2022/04/01 03:47:08;;;;;;;;;;;;;;;;;;5015608;28;19917;-22
2022/04/01 03:49:34;;;;;;;;;;;;;;;;;;5015170;28;20332;-22
2022/04/01 03:52:07;;;;;;;;;;;;;;;;;;5015492;28;19921;-23
2022/04/01 03:54:33;;;;;;;;;;;;;;;;;;5015873;28;19910;-22
2022/04/01 03:57:00;;;;;;;;;;;;;;;;;;5015961;28;20332;-22
2022/04/01 03:59:40;;;;;;;;;;;;;;;;;;5015335;28;19997;-22
2022/04/01 04:02:07;;;;;;;;;;;;;;;;;;4997875;28;19949;-22
2022/04/01 04:04:33;;;;;;;;;;;;;;;;;;5015258;28;20340;-22
2022/04/01 04:07:01;;;;;;;;;;;;;;;;;;5015695;28;20297;-22
2022/04/01 04:09:27;;;;;;;;;;;;;;;;;;5015335;28;19910;-22
2022/04/01 04:11:54;;;;;;;;;;;;;;;;;;5015139;28;19921;-23
2022/04/01 04:14:20;;;;;;;;;;;;;;;;;;5014946;28;19913;-23
2022/04/01 04:16:47;;;;;;;;;;;;;;;;;;5015546;28;19909;-23
2022/04/01 04:19:18;;;;;;;;;;;;;;;;;;5014849;28;19924;-22
2022/04/01 04:21:46;;;;;;;;;;;;;;;;;;5014824;28;19913;-24
2022/04/01 04:24:13;;;;;;;;;;;;;;;;;;5014365;28;19948;-22
2022/04/01 04:26:39;;;;;;;;;;;;;;;;;;5015331;28;20253;-23
2022/04/01 04:29:07;;;;;;;;;;;;;;;;;;5014832;28;19910;-23
2022/04/01 04:31:35;;;;;;;;;;;;;;;;;;5015049;28;20016;-22
2022/04/01 04:34:02;;;;;;;;;;;;;;;;;;5014651;28;19910;-23
2022/04/01 04:36:28;;;;;;;;;;;;;;;;;;5014409;28;19924;-23
2022/04/01 04:38:54;;;;;;;;;;;;;;;;;;5014664;28;19913;-23
2022/04/01 04:44:11;;;;;;;;;;;;;;;;;;5014693;28;19940;-23
2022/04/01 04:49:22;;;;;;;;;;;;;;;;;;5014596;28;19974;-21
2022/04/01 04:51:48;;;;;;;;;;;;;;;;;;5014415;28;19914;-21
2022/04/01 04:54:15;;;;;;;;;;;;;;;;;;5014995;28;19940;-21
2022/04/01 04:56:41;;;;;;;;;;;;;;;;;;5014471;28;19914;-23
2022/04/01 04:59:07;;;;;;;;;;;;;;;;;;5015005;28;20284;-23
2022/04/01 05:01:34;;;;;;;;;;;;;;;;;;5016186;28;20275;-23
2022/04/01 05:04:02;;;;;;;;;;;;;;;;;;5018324;28;19964;-24
2022/04/01 05:06:28;;;;;;;;;;;;;;;;;;5018329;28;19917;-23
2022/04/01 05:08:54;;;;;;;;;;;;;;;;;;5018331;28;20322;-23
2022/04/01 05:11:22;;;;;;;;;;;;;;;;;;5018172;28;19913;-23
2022/04/01 05:13:48;;;;;;;;;;;;;;;;;;5018248;28;19993;-22
2022/04/01 05:16:27;;;;;;;;;;;;;;;;;;5018126;28;20299;-21
2022/04/01 05:18:57;;;;;;;;;;;;;;;;;;5017952;28;19913;-21
2022/04/01 05:21:24;;;;;;;;;;;;;;;;;;5018605;28;20004;-23
2022/04/01 05:23:51;;;;;;;;;;;;;;;;;;5017650;28;19921;-22
2022/04/01 05:26:18;;;;;;;;;;;;;;;;;;5018181;28;20214;-23
2022/04/01 05:28:44;;;;;;;;;;;;;;;;;;5017968;28;19924;-23
2022/04/01 05:31:12;;;;;;;;;;;;;;;;;;5018230;28;19948;-23
2022/04/01 05:33:39;;;;;;;;;;;;;;;;;;5017789;28;20261;-23
2022/04/01 05:36:06;;;;;;;;;;;;;;;;;;5018363;28;19914;-23
2022/04/01 05:38:32;;;;;;;;;;;;;;;;;;5017601;28;20280;-23
2022/04/01 05:40:58;;;;;;;;;;;;;;;;;;5018396;28;19920;-23
2022/04/01 05:43:25;;;;;;;;;;;;;;;;;;5017487;28;19924;-23
2022/04/01 05:45:53;;;;;;;;;;;;;;;;;;5017382;28;19914;-22
2022/04/01 05:48:20;;;;;;;;;;;;;;;;;;5017725;28;19913;-20
2022/04/01 05:50:46;;;;;;;;;;;;;;;;;;5017615;28;19914;-20
2022/04/01 05:53:14;;;;;;;;;;;;;;;;;;5017154;28;20312;-21
2022/04/01 05:55:40;;;;;;;;;;;;;;;;;;5017205;28;19913;-22
2022/04/01 05:58:06;;;;;;;;;;;;;;;;;;5017652;28;20339;-23
2022/04/01 06:00:32;;;;;;;;;;;;;;;;;;5017774;28;19914;-23
2022/04/01 06:02:58;;;;;;;;;;;;;;;;;;4999715;28;19920;-23
2022/04/01 06:05:26;;;;;;;;;;;;;;;;;;5017581;28;19917;-23
2022/04/01 06:07:52;;;;;;;;;;;;;;;;;;5016875;28;19928;-23
2022/04/01 06:10:18;;;;;;;;;;;;;;;;;;5017217;28;19921;-22
2022/04/01 06:12:46;;;;;;;;;;;;;;;;;;5015034;28;19957;-22
2022/04/01 06:15:14;;;;;;;;;;;;;;;;;;5016426;28;20339;-22
2022/04/01 06:17:40;;;;;;;;;;;;;;;;;;5016121;28;20240;-22
2022/04/01 06:20:07;;;;;;;;;;;;;;;;;;5016625;28;20005;-22
2022/04/01 06:22:33;;;;;;;;;;;;;;;;;;5016115;28;19949;-22
2022/04/01 06:25:00;;;;;;;;;;;;;;;;;;5016043;28;19932;-23
2022/04/01 06:27:26;;;;;;;;;;;;;;;;;;5015832;28;20012;-22
2022/04/01 06:29:52;;;;;;;;;;;;;;;;;;5015874;28;19910;-21
2022/04/01 06:32:18;;;;;;;;;;;;;;;;;;5016257;28;19956;-22
2022/04/01 06:34:44;;;;;;;;;;;;;;;;;;5016279;28;19921;-23
2022/04/01 06:37:10;;;;;;;;;;;;;;;;;;5016559;28;19913;-23
2022/04/01 06:39:37;;;;;;;;;;;;;;;;;;5016787;28;19909;-22
2022/04/01 06:42:03;;;;;;;;;;;;;;;;;;5016031;28;19913;-22
2022/04/01 06:44:31;;;;;;;;;;;;;;;;;;5016589;28;20043;-22
2022/04/01 06:46:57;;;;;;;;;;;;;;;;;;4998443;28;20409;-23
2022/04/01 06:49:25;;;;;;;;;;;;;;;;;;5016593;28;20229;-22
2022/04/01 06:51:53;;;;;;;;;;;;;;;;;;5016031;28;19914;-23
2022/04/01 06:54:19;;;;;;;;;;;;;;;;;;5016171;28;20243;-23
2022/04/01 06:56:46;;;;;;;;;;;;;;;;;;5015982;28;19913;-23
2022/04/01 06:59:13;;;;;;;;;;;;;;;;;;5016193;28;19910;-23
2022/04/01 07:01:39;;;;;;;;;;;;;;;;;;4998871;28;19929;-23
2022/04/01 07:04:07;;;;;;;;;;;;;;;;;;5016020;28;20333;-23
2022/04/01 07:06:34;;;;;;;;;;;;;;;;;;5016471;28;20100;-23
2022/04/01 07:09:00;;;;;;;;;;;;;;;;;;5016001;28;19963;-23
2022/04/01 07:11:32;;;;;;;;;;;;;;;;;;5015828;28;19920;-23
2022/04/01 07:13:59;;;;;;;;;;;;;;;;;;5016040;28;20248;-23
2022/04/01 07:16:25;;;;;;;;;;;;;;;;;;5016262;28;20285;-23
2022/04/01 07:18:51;;;;;;;;;;;;;;;;;;5015723;28;19909;-23
2022/04/01 07:21:19;;;;;;;;;;;;;;;;;;4998351;28;19909;-22
2022/04/01 07:23:45;;;;;;;;;;;;;;;;;;4998070;28;19929;-23
2022/04/01 07:26:12;;;;;;;;;;;;;;;;;;4998129;28;19921;-23
2022/04/01 07:28:38;;;;;;;;;;;;;;;;;;5016101;28;20292;-22
2022/04/01 07:32:29;;;;;;;;;;;;;;;;;;5016127;28;20008;-23
2022/04/01 07:33:50;;;;;;;;;;;;;;;;;;5015412;28;19924;-22
2022/04/01 07:36:16;;;;;;;;;;;;;;;;;;5015992;28;19913;-23
2022/04/01 07:38:44;;;;;;;;;;;;;;;;;;5016097;28;20269;-23
2022/04/01 07:41:15;;;;;;;;;;;;;;;;;;5015121;28;20210;-23
2022/04/01 07:43:41;;;;;;;;;;;;;;;;;;4997860;28;20348;-23
2022/04/01 07:46:07;;;;;;;;;;;;;;;;;;5015002;28;19933;-23
2022/04/01 07:48:33;;;;;;;;;;;;;;;;;;5014918;28;19968;-23
2022/04/01 07:50:59;;;;;;;;;;;;;;;;;;5015033;28;19921;-22
2022/04/01 07:53:26;;;;;;;;;;;;;;;;;;5014793;28;19920;-28
2022/04/01 07:55:52;;;;;;;;;;;;;;;;;;5015368;28;19945;-23
2022/04/01 07:58:18;;;;;;;;;;;;;;;;;;5015490;28;19910;-23
2022/04/01 08:00:44;;;;;;;;;;;;;;;;;;5014782;28;19918;-23
2022/04/01 08:03:11;;;;;;;;;;;;;;;;;;5014936;28;19913;-23
2022/04/01 08:05:38;;;;;;;;;;;;;;;;;;5014650;28;19949;-23
2022/04/01 08:08:05;;;;;;;;;;;;;;;;;;4997388;28;19918;-21
2022/04/01 08:10:31;;;;;;;;;;;;;;;;;;5014678;28;19914;-21
2022/04/01 08:12:59;;;;;;;;;;;;;;;;;;5014722;28;19914;-21
2022/04/01 08:15:25;;;;;;;;;;;;;;;;;;5014757;28;19964;-22
2022/04/01 08:17:55;;;;;;;;;;;;;;;;;;5014710;28;20304;-22
2022/04/01 08:20:22;;;;;;;;;;;;;;;;;;4997190;28;19944;-21
2022/04/01 08:22:49;;;;;;;;;;;;;;;;;;5014630;28;19913;-21
2022/04/01 08:25:15;;;;;;;;;;;;;;;;;;5014266;28;19952;-21
2022/04/01 08:27:42;;;;;;;;;;;;;;;;;;5014428;28;19917;-21
2022/04/01 08:30:08;;;;;;;;;;;;;;;;;;4997074;28;19948;-21
2022/04/01 08:32:36;;;;;;;;;;;;;;;;;;5014203;28;19918;-22
2022/04/01 08:35:02;;;;;;;;;;;;;;;;;;5014134;28;19914;-21
2022/04/01 08:37:28;;;;;;;;;;;;;;;;;;5014019;28;19917;-21
2022/04/01 08:39:58;;;;;;;;;;;;;;;;;;5014503;28;19933;-23
2022/04/01 08:42:27;;;;;;;;;;;;;;;;;;5013723;28;19913;-22
2022/04/01 08:44:55;;;;;;;;;;;;;;;;;;4996438;28;20348;-22
2022/04/01 08:47:21;;;;;;;;;;;;;;;;;;5014329;28;20005;-23
2022/04/01 08:49:48;;;;;;;;;;;;;;;;;;5013834;28;19980;-23
2022/04/01 08:52:17;;;;;;;;;;;;;;;;;;5013999;28;19979;-23
2022/04/01 08:54:43;;;;;;;;;;;;;;;;;;5013621;28;19913;-23
2022/04/01 08:57:09;;;;;;;;;;;;;;;;;;5013953;28;19914;-23
2022/04/01 08:59:37;;;;;;;;;;;;;;;;;;4996382;28;19910;-23
2022/04/01 09:02:03;;;;;;;;;;;;;;;;;;5014105;28;19913;-23
2022/04/01 09:04:30;;;;;;;;;;;;;;;;;;5014172;28;19909;-22
2022/04/01 09:06:58;;;;;;;;;;;;;;;;;;5013503;28;19932;-23
2022/04/01 09:09:25;;;;;;;;;;;;;;;;;;5013935;28;19909;-22
2022/04/01 09:11:52;;;;;;;;;;;;;;;;;;5013476;28;19948;-23
2022/04/01 09:14:20;;;;;;;;;;;;;;;;;;5013895;28;20335;-21
2022/04/01 09:16:46;;;;;;;;;;;;;;;;;;5013623;28;19956;-21
2022/04/01 09:19:13;;;;;;;;;;;;;;;;;;5014047;28;20445;-21
2022/04/01 09:21:44;;;;;;;;;;;;;;;;;;5013617;28;19921;-21
2022/04/01 09:24:10;;;;;;;;;;;;;;;;;;5013633;28;19921;-21
2022/04/01 09:26:37;;;;;;;;;;;;;;;;;;5013957;28;20363;-21
2022/04/01 09:29:04;;;;;;;;;;;;;;;;;;5013969;28;19917;-21
2022/04/01 09:31:30;;;;;;;;;;;;;;;;;;4996855;28;20357;-21
2022/04/01 09:33:57;;;;;;;;;;;;;;;;;;5014182;28;19909;-21
2022/04/01 09:36:33;;;;;;;;;;;;;;;;;;5014229;28;20000;-21
2022/04/01 09:38:59;;;;;;;;;;;;;;;;;;5013737;28;19910;-20
2022/04/01 09:41:26;;;;;;;;;;;;;;;;;;5013635;28;19921;-21
2022/04/01 09:43:52;;;;;;;;;;;;;;;;;;5014429;28;19913;-21
2022/04/01 09:46:19;;;;;;;;;;;;;;;;;;5013797;28;19922;-21
2022/04/01 09:48:45;;;;;;;;;;;;;;;;;;5017320;28;19991;-22
2022/04/01 09:51:11;;;;;;;;;;;;;;;;;;5017367;28;20383;-24
2022/04/01 09:53:40;;;;;;;;;;;;;;;;;;5017712;28;19910;-22
2022/04/01 09:56:08;;;;;;;;;;;;;;;;;;5017148;28;19913;-23
2022/04/01 09:58:35;;;;;;;;;;;;;;;;;;5017292;28;19949;-23
2022/04/01 10:01:02;;;;;;;;;;;;;;;;;;5017248;28;19913;-23
2022/04/01 10:03:29;;;;;;;;;;;;;;;;;;5017480;28;19909;-23
2022/04/01 10:05:55;;;;;;;;;;;;;;;;;;5017586;28;19914;-23
2022/04/01 10:08:23;;;;;;;;;;;;;;;;;;5017244;28;19980;-23
2022/04/01 10:10:49;;;;;;;;;;;;;;;;;;4999606;28;19919;-23
2022/04/01 10:13:15;;;;;;;;;;;;;;;;;;5017096;28;19913;-23
2022/04/01 10:15:42;;;;;;;;;;;;;;;;;;5017160;28;19921;-23
2022/04/01 10:18:09;;;;;;;;;;;;;;;;;;5016872;28;19914;-20
2022/04/01 10:20:36;;;;;;;;;;;;;;;;;;5016855;28;19914;-22
2022/04/01 10:23:04;;;;;;;;;;;;;;;;;;5017092;28;19931;-22
2022/04/01 10:25:31;;;;;;;;;;;;;;;;;;5016880;28;19913;-24
2022/04/01 10:27:57;;;;;;;;;;;;;;;;;;5016775;28;19917;-21
2022/04/01 10:30:24;;;;;;;;;;;;;;;;;;5016874;28;19936;-22
2022/04/01 10:32:50;;;;;;;;;;;;;;;;;;5016919;28;20397;-21
2022/04/01 10:35:17;;;;;;;;;;;;;;;;;;5016346;28;20009;-25
2022/04/01 10:37:46;;;;;;;;;;;;;;;;;;5016680;28;20479;-24
2022/04/01 10:40:12;;;;;;;;;;;;;;;;;;5016853;28;20265;-28
2022/04/01 10:42:40;;;;;;;;;;;;;;;;;;5016359;28;20272;-25
2022/04/01 10:45:06;;;;;;;;;;;;;;;;;;5016345;28;20319;-22
2022/04/01 10:51:36;;;;;;;;;;;;;;;;;;5016255;28;19917;-22
2022/04/01 10:53:04;;;;;;;;;;;;;;;;;;5016288;28;20063;-23
2022/04/01 10:55:30;;;;;;;;;;;;;;;;;;5015980;28;19909;-22
2022/04/01 10:57:56;;;;;;;;;;;;;;;;;;5015641;28;19914;-23
2022/04/01 11:00:23;;;;;;;;;;;;;;;;;;5015006;28;19941;-28
2022/04/01 11:02:50;;;;;;;;;;;;;;;;;;5015509;28;19914;-24
2022/04/01 11:05:16;;;;;;;;;;;;;;;;;;5015710;28;19964;-24
2022/04/01 11:07:43;;;;;;;;;;;;;;;;;;5015218;28;19917;-22
2022/04/01 11:10:10;;;;;;;;;;;;;;;;;;5015468;28;19920;-22
2022/04/01 11:12:38;;;;;;;;;;;;;;;;;;5015092;28;19913;-23
2022/04/01 11:15:07;;;;;;;;;;;;;;;;;;5014961;28;19918;-22
2022/04/01 11:17:35;;;;;;;;;;;;;;;;;;5014969;28;20419;-22
2022/04/01 11:20:02;;;;;;;;;;;;;;;;;;5014939;28;19921;-21
2022/04/01 11:22:28;;;;;;;;;;;;;;;;;;5015191;28;19924;-24
2022/04/01 11:24:54;;;;;;;;;;;;;;;;;;5015067;28;19972;-21
2022/04/01 11:27:22;;;;;;;;;;;;;;;;;;5015201;28;19918;-22
2022/04/01 11:29:49;;;;;;;;;;;;;;;;;;5015364;28;19910;-23
2022/04/01 11:32:17;;;;;;;;;;;;;;;;;;4997625;28;20237;-24
2022/04/01 11:34:43;;;;;;;;;;;;;;;;;;5015473;28;19910;-22
2022/04/01 11:37:09;;;;;;;;;;;;;;;;;;5015952;28;19913;-22
2022/04/01 11:39:35;;;;;;;;;;;;;;;;;;5015261;28;19951;-24
2022/04/01 11:42:02;;;;;;;;;;;;;;;;;;5014891;28;19913;-23
2022/04/01 11:44:30;;;;;;;;;;;;;;;;;;5015273;28;19913;-22
2022/04/01 11:46:58;;;;;;;;;;;;;;;;;;5015148;28;19924;-25
2022/04/01 11:49:24;;;;;;;;;;;;;;;;;;4997809;28;20355;-22
2022/04/01 11:51:51;;;;;;;;;;;;;;;;;;5014853;28;20344;-28
2022/04/01 11:54:18;;;;;;;;;;;;;;;;;;5015050;28;19958;-22
2022/04/01 11:56:45;;;;;;;;;;;;;;;;;;5015353;28;20245;-25
2022/04/01 11:59:11;;;;;;;;;;;;;;;;;;5015215;28;19913;-25
2022/04/01 12:01:55;;;;;;;;;;;;;;;;;;5015382;28;20011;-23
2022/04/01 12:04:22;;;;;;;;;;;;;;;;;;5014786;28;20345;-20
2022/04/01 12:09:35;;;;;;;;;;;;;;;;;;5015060;28;19969;-22
2022/04/01 12:12:04;;;;;;;;;;;;;;;;;;5013951;28;19921;-23
2022/04/01 12:14:31;;;;;;;;;;;;;;;;;;5014761;28;19975;-24
2022/04/01 12:16:57;;;;;;;;;;;;;;;;;;5014644;28;19913;-23
2022/04/01 12:19:24;;;;;;;;;;;;;;;;;;5014991;28;19960;-25
2022/04/01 12:21:50;;;;;;;;;;;;;;;;;;5015244;28;20255;-20
2022/04/01 12:24:20;;;;;;;;;;;;;;;;;;5014697;28;20380;-24
2022/04/01 12:26:50;;;;;;;;;;;;;;;;;;5014590;28;20055;-21
2022/04/01 12:29:19;;;;;;;;;;;;;;;;;;5014675;28;19913;-23
2022/04/01 12:31:46;;;;;;;;;;;;;;;;;;5014641;28;20244;-26
2022/04/01 12:34:14;;;;;;;;;;;;;;;;;;5014391;28;19972;-24
2022/04/01 12:36:41;;;;;;;;;;;;;;;;;;5014262;28;19923;-21
2022/04/01 12:39:08;;;;;;;;;;;;;;;;;;5014370;28;19937;-24
2022/04/01 12:41:34;;;;;;;;;;;;;;;;;;5014321;28;19968;-24
2022/04/01 12:44:02;;;;;;;;;;;;;;;;;;5014062;28;19983;-22
2022/04/01 12:46:29;;;;;;;;;;;;;;;;;;5013999;28;20045;-21
2022/04/01 12:48:55;;;;;;;;;;;;;;;;;;5014304;28;20305;-22
2022/04/01 12:51:21;;;;;;;;;;;;;;;;;;5014499;28;19992;-21
2022/04/01 12:53:48;;;;;;;;;;;;;;;;;;5014379;28;19999;-22
2022/04/01 12:56:17;;;;;;;;;;;;;;;;;;5014225;28;19933;-23
2022/04/01 12:58:43;;;;;;;;;;;;;;;;;;5014193;28;19913;-22
2022/04/01 13:01:09;;;;;;;;;;;;;;;;;;4996710;28;20008;-22
2022/04/01 13:03:37;;;;;;;;;;;;;;;;;;5014106;28;19913;-24
2022/04/01 13:06:03;;;;;;;;;;;;;;;;;;4997098;28;19913;-21
2022/04/01 13:08:30;;;;;;;;;;;;;;;;;;5014871;28;19976;-22
2022/04/01 13:10:58;;;;;;;;;;;;;;;;;;5014201;28;20012;-21
2022/04/01 13:13:26;;;;;;;;;;;;;;;;;;4996520;28;19929;-21
2022/04/01 13:15:53;;;;;;;;;;;;;;;;;;5014864;28;19914;-21
2022/04/01 13:18:20;;;;;;;;;;;;;;;;;;5014236;28;20004;-24
2022/04/01 13:20:46;;;;;;;;;;;;;;;;;;4997017;28;19948;-20
2022/04/01 13:23:13;;;;;;;;;;;;;;;;;;5016363;28;20400;-20
2022/04/01 13:28:31;;;;;;;;;;;;;;;;;;5017831;28;19928;-24
2022/04/01 13:30:58;;;;;;;;;;;;;;;;;;5000607;28;20301;-21
2022/04/01 13:33:24;;;;;;;;;;;;;;;;;;5017446;28;19913;-21
2022/04/01 13:35:51;;;;;;;;;;;;;;;;;;5000515;28;19924;-23
2022/04/01 13:38:18;;;;;;;;;;;;;;;;;;5000571;28;19964;-27
2022/04/01 13:40:46;;;;;;;;;;;;;;;;;;5017764;28;19928;-29
2022/04/01 13:43:12;;;;;;;;;;;;;;;;;;5017962;28;19949;-20
2022/04/01 13:45:39;;;;;;;;;;;;;;;;;;5017417;28;19913;-22
2022/04/01 13:48:06;;;;;;;;;;;;;;;;;;5017795;28;20261;-21
2022/04/01 13:50:34;;;;;;;;;;;;;;;;;;5017723;28;19914;-21
2022/04/01 13:53:00;;;;;;;;;;;;;;;;;;5017446;28;19924;-21
2022/04/01 13:55:27;;;;;;;;;;;;;;;;;;5000043;28;19945;-22
2022/04/01 13:57:53;;;;;;;;;;;;;;;;;;5017830;28;19949;-22
2022/04/01 14:00:21;;;;;;;;;;;;;;;;;;5017107;28;19913;-22
2022/04/01 14:02:48;;;;;;;;;;;;;;;;;;5017095;28;19909;-22
2022/04/01 14:05:14;;;;;;;;;;;;;;;;;;5017462;28;19917;-22
2022/04/01 14:07:40;;;;;;;;;;;;;;;;;;5016902;28;19913;-21
2022/04/01 14:10:08;;;;;;;;;;;;;;;;;;5016896;28;20282;-22
2022/04/01 14:12:35;;;;;;;;;;;;;;;;;;5016952;28;19968;-20
2022/04/01 14:15:01;;;;;;;;;;;;;;;;;;5017029;28;19914;-25
2022/04/01 14:17:28;;;;;;;;;;;;;;;;;;5017867;28;19966;-21
2022/04/01 14:19:54;;;;;;;;;;;;;;;;;;5017053;28;20309;-21
2022/04/01 14:22:22;;;;;;;;;;;;;;;;;;4999697;28;20352;-27
2022/04/01 14:24:50;;;;;;;;;;;;;;;;;;4983991;28;20404;-20
2022/04/01 14:27:17;;;;;;;;;;;;;;;;;;4997262;28;19925;-21
2022/04/01 14:32:27;;;;;;;;;;;;;;;;;;4997274;28;19977;-25
2022/04/01 14:34:55;;;;;;;;;;;;;;;;;;4996146;28;19910;-22
2022/04/01 14:37:21;;;;;;;;;;;;;;;;;;4997275;28;19914;-20
2022/04/01 14:39:47;;;;;;;;;;;;;;;;;;4996892;28;19909;-25
2022/04/01 14:42:13;;;;;;;;;;;;;;;;;;4979540;28;19945;-24
2022/04/01 14:44:39;;;;;;;;;;;;;;;;;;4996946;28;20234;-26
2022/04/01 14:47:07;;;;;;;;;;;;;;;;;;4996911;28;20249;-21
2022/04/01 14:49:37;;;;;;;;;;;;;;;;;;4997063;28;19918;-21
2022/04/01 14:52:03;;;;;;;;;;;;;;;;;;4996867;28;20249;-22
2022/04/01 14:54:29;;;;;;;;;;;;;;;;;;4996567;28;19993;-22
2022/04/01 14:56:57;;;;;;;;;;;;;;;;;;4996685;28;19964;-25
2022/04/01 14:59:23;;;;;;;;;;;;;;;;;;4996595;28;20359;-22
2022/04/01 15:01:50;;;;;;;;;;;;;;;;;;4996941;28;19968;-21
2022/04/01 15:07:07;;;;;;;;;;;;;;;;;;4996527;28;19929;-22
2022/04/01 15:09:37;;;;;;;;;;;;;;;;;;4995844;28;20328;-22
2022/04/01 15:12:03;;;;;;;;;;;;;;;;;;4995559;28;19949;-24
2022/04/01 15:14:31;;;;;;;;;;;;;;;;;;4978519;28;19914;-25
2022/04/01 15:16:57;;;;;;;;;;;;;;;;;;4978553;28;20308;-21
2022/04/01 15:19:24;;;;;;;;;;;;;;;;;;4995975;28;19951;-26
2022/04/01 15:21:52;;;;;;;;;;;;;;;;;;4978428;28;19925;-24
2022/04/01 15:24:18;;;;;;;;;;;;;;;;;;5006744;28;19921;-25
2022/04/01 15:26:44;;;;;;;;;;;;;;;;;;5015624;28;20071;-24
2022/04/01 15:31:56;;;;;;;;;;;;;;;;;;5015484;28;19921;-20
2022/04/01 15:34:23;;;;;;;;;;;;;;;;;;5015484;28;20240;-21
2022/04/01 15:36:49;;;;;;;;;;;;;;;;;;5015466;28;19924;-21
2022/04/01 15:42:06;;;;;;;;;;;;;;;;;;5015483;28;19975;-25
2022/04/01 15:44:32;;;;;;;;;;;;;;;;;;5015464;28;19932;-20
2022/04/01 15:46:58;;;;;;;;;;;;;;;;;;5015811;28;19918;-25
2022/04/01 15:49:24;;;;;;;;;;;;;;;;;;5015503;28;19920;-20
2022/04/01 15:51:50;;;;;;;;;;;;;;;;;;5015402;28;20352;-28
2022/04/01 15:54:18;;;;;;;;;;;;;;;;;;4997991;28;19940;-24
2022/04/01 15:56:44;;;;;;;;;;;;;;;;;;5015238;28;19917;-23
2022/04/01 15:59:11;;;;;;;;;;;;;;;;;;5015651;28;19978;-24
2022/04/01 16:01:40;;;;;;;;;;;;;;;;;;5015916;28;19909;-21
2022/04/01 16:04:06;;;;;;;;;;;;;;;;;;5015043;28;19913;-26
2022/04/01 16:06:32;;;;;;;;;;;;;;;;;;5014976;28;20012;-21
2022/04/01 16:08:59;;;;;;;;;;;;;;;;;;5015379;28;19932;-24
2022/04/01 16:11:25;;;;;;;;;;;;;;;;;;4997815;28;20268;-21
2022/04/01 16:13:54;;;;;;;;;;;;;;;;;;5014939;28;19972;-20
2022/04/01 16:16:22;;;;;;;;;;;;;;;;;;5015450;28;20355;-24
2022/04/01 16:18:50;;;;;;;;;;;;;;;;;;5014943;28;20068;-21
2022/04/01 16:21:16;;;;;;;;;;;;;;;;;;5014816;28;19913;-21
2022/04/01 16:23:44;;;;;;;;;;;;;;;;;;5008672;28;19922;-20
2022/04/01 16:26:10;;;;;;;;;;;;;;;;;;4995147;28;19937;-22
2022/04/01 16:28:37;;;;;;;;;;;;;;;;;;4995103;28;20367;-24
2022/04/01 16:31:06;;;;;;;;;;;;;;;;;;4995304;28;19921;-21
2022/04/01 16:33:32;;;;;;;;;;;;;;;;;;4995127;28;19914;-22
2022/04/01 16:35:58;;;;;;;;;;;;;;;;;;4995606;28;19914;-24
2022/04/01 16:38:26;;;;;;;;;;;;;;;;;;4994880;28;19918;-24
2022/04/01 16:40:52;;;;;;;;;;;;;;;;;;4994886;28;19957;-24
2022/04/01 16:46:09;;;;;;;;;;;;;;;;;;4994831;28;20376;-22
2022/04/01 16:48:37;;;;;;;;;;;;;;;;;;4994496;28;19925;-23
2022/04/01 16:51:03;;;;;;;;;;;;;;;;;;4994989;28;19964;-26
2022/04/01 16:53:30;;;;;;;;;;;;;;;;;;4994550;28;20234;-22
2022/04/01 16:55:58;;;;;;;;;;;;;;;;;;4994765;28;19962;-22
2022/04/01 16:58:25;;;;;;;;;;;;;;;;;;4997862;28;20337;-24
2022/04/01 17:00:52;;;;;;;;;;;;;;;;;;4998415;28;19922;-25
2022/04/01 17:03:19;;;;;;;;;;;;;;;;;;4998498;28;19969;-25
2022/04/01 17:13:59;;;;;;;;;;;;;;;;;;4998433;28;19924;-21
2022/04/01 17:16:26;;;;;;;;;;;;;;;;;;4998514;28;19910;-25
2022/04/01 17:18:54;;;;;;;;;;;;;;;;;;4998247;28;19961;-25
2022/04/01 17:21:20;;;;;;;;;;;;;;;;;;4998442;28;19914;-24
2022/04/01 17:23:47;;;;;;;;;;;;;;;;;;4987640;28;20052;-26
2022/04/01 17:26:15;;;;;;;;;;;;;;;;;;5018341;28;19914;-21